KADW

Joint Base Andrews

Airport
ICAO code
KADW
Summary
ICAO Region
NAM
ICAO Territory
Location

Prince George's County, Maryland,

Coordinates
38° 47' 47" N , 76° 53' 1" W
KCC
Airport LOS
Parallel Runway Operation
Airport WX
Cumulonimbus
Metar
Observation
KADW 071755Z AUTO 22006KT 10SM CLR 25/08 A2999 RMK AO2 SLP161 T02490084 10251 20106 58016 $
Station
Camp Springs / Andrews Air Force Base
Date/Time
2022-10-07 17:55:00
Wind direction
220°
Wind speed
06 kts
Lowest cloud amount
n/a
Temperature
24.9°C
Dew point
8.4°C
Humidity
35%
Weather condition
n/a

Description

Joint Base Andrews is a United States military facility located in Prince George's County, Maryland, 10 km southeast of Washington, DC. Joint Base Andrews was established in 2009 as a merger of Andrews Air Force Base and Naval Air Facility Washington.

Climatology

Humid “subtropical” climate (Köppen climate classification Cfa) - characterized by hot, humid summers and cool winters. Significant amounts of precipitation occur in all seasons in most areas. Winter rainfall (and sometimes snowfall) is associated with large storms that the westerlies steer from west to east. Most summer rainfall occurs during thunderstorms and occasional tropical storms (hurricanes).

Airport map

Aerial View

SKYbrary Partners:

Safety knowledge contributed by: